sensor_id;sensor_type;location;lat;lon;timestamp;pressure;altitude;pressure_sealevel;temperature;humidity
37078;BME280;22989;55.998;37.212;2023-02-22T00:01:10;-11298.94;;;-145.39;56.05
37078;BME280;22989;55.998;37.212;2023-02-22T00:03:48;-11298.94;;;-145.39;56.01
37078;BME280;22989;55.998;37.212;2023-02-22T00:06:16;-11298.94;;;-145.39;56.02
37078;BME280;22989;55.998;37.212;2023-02-22T00:08:42;-11298.94;;;-145.39;56.05
37078;BME280;22989;55.998;37.212;2023-02-22T00:11:08;-11298.94;;;-145.39;56.13
37078;BME280;22989;55.998;37.212;2023-02-22T00:13:35;-11298.94;;;-145.39;56.16
37078;BME280;22989;55.998;37.212;2023-02-22T00:16:01;-11298.94;;;-145.39;56.28
37078;BME280;22989;55.998;37.212;2023-02-22T00:18:27;-11298.94;;;-145.39;56.10
37078;BME280;22989;55.998;37.212;2023-02-22T00:20:58;-11298.94;;;-145.39;56.13
37078;BME280;22989;55.998;37.212;2023-02-22T00:23:29;-11298.94;;;-145.39;56.34
37078;BME280;22989;55.998;37.212;2023-02-22T00:25:56;-11298.94;;;-145.39;56.20
37078;BME280;22989;55.998;37.212;2023-02-22T00:28:22;-11298.94;;;-145.39;56.12
37078;BME280;22989;55.998;37.212;2023-02-22T00:30:49;-11298.94;;;-145.39;56.37
37078;BME280;22989;55.998;37.212;2023-02-22T00:33:16;-11298.94;;;-145.39;56.33
37078;BME280;22989;55.998;37.212;2023-02-22T00:35:43;-11298.94;;;-145.39;56.30
37078;BME280;22989;55.998;37.212;2023-02-22T00:38:11;-11298.94;;;-145.39;56.40
37078;BME280;22989;55.998;37.212;2023-02-22T00:40:38;-11298.94;;;-145.39;56.35
37078;BME280;22989;55.998;37.212;2023-02-22T00:43:05;-11298.94;;;-145.39;56.41
37078;BME280;22989;55.998;37.212;2023-02-22T00:45:32;-11298.94;;;-145.39;56.44
37078;BME280;22989;55.998;37.212;2023-02-22T00:47:59;-11298.94;;;-145.39;56.51
37078;BME280;22989;55.998;37.212;2023-02-22T00:50:27;-11298.94;;;-145.39;56.81
37078;BME280;22989;55.998;37.212;2023-02-22T00:52:53;-11298.94;;;-145.39;56.49
37078;BME280;22989;55.998;37.212;2023-02-22T00:55:23;-11298.94;;;-145.39;56.70
37078;BME280;22989;55.998;37.212;2023-02-22T00:57:50;-11298.94;;;-145.39;56.83
37078;BME280;22989;55.998;37.212;2023-02-22T01:00:21;-11298.94;;;-145.39;56.62
37078;BME280;22989;55.998;37.212;2023-02-22T01:02:47;-11298.94;;;-145.39;56.73
37078;BME280;22989;55.998;37.212;2023-02-22T01:05:17;-11298.94;;;-145.39;56.65
37078;BME280;22989;55.998;37.212;2023-02-22T01:07:44;-11298.94;;;-145.39;56.71
37078;BME280;22989;55.998;37.212;2023-02-22T01:10:10;-11298.94;;;-145.39;56.76
37078;BME280;22989;55.998;37.212;2023-02-22T01:12:37;-11298.94;;;-145.39;56.69
37078;BME280;22989;55.998;37.212;2023-02-22T01:15:05;-11298.94;;;-145.39;56.59
37078;BME280;22989;55.998;37.212;2023-02-22T01:17:35;-11298.94;;;-145.39;56.53
37078;BME280;22989;55.998;37.212;2023-02-22T01:20:03;-11298.94;;;-145.39;56.56
37078;BME280;22989;55.998;37.212;2023-02-22T01:22:35;-11298.94;;;-145.39;56.56
37078;BME280;22989;55.998;37.212;2023-02-22T01:25:02;-11298.94;;;-145.39;56.45
37078;BME280;22989;55.998;37.212;2023-02-22T01:27:28;-11298.94;;;-145.39;56.52
37078;BME280;22989;55.998;37.212;2023-02-22T01:29:54;-11298.94;;;-145.39;56.50
37078;BME280;22989;55.998;37.212;2023-02-22T01:32:19;-11298.94;;;-145.39;56.40
37078;BME280;22989;55.998;37.212;2023-02-22T01:34:45;-11298.94;;;-145.39;56.29
37078;BME280;22989;55.998;37.212;2023-02-22T01:37:10;-11298.94;;;-145.39;56.28
37078;BME280;22989;55.998;37.212;2023-02-22T01:39:36;-11298.94;;;-145.39;56.28
37078;BME280;22989;55.998;37.212;2023-02-22T01:42:02;-11298.94;;;-145.39;56.10
37078;BME280;22989;55.998;37.212;2023-02-22T01:44:33;-11298.94;;;-145.39;56.17
37078;BME280;22989;55.998;37.212;2023-02-22T01:47:01;-11298.94;;;-145.39;56.15
37078;BME280;22989;55.998;37.212;2023-02-22T01:49:31;-11298.94;;;-145.39;56.19
37078;BME280;22989;55.998;37.212;2023-02-22T01:52:02;-11298.94;;;-145.39;55.93
37078;BME280;22989;55.998;37.212;2023-02-22T01:54:34;-11298.94;;;-145.39;56.15
37078;BME280;22989;55.998;37.212;2023-02-22T01:57:09;-11298.94;;;-145.39;56.26
37078;BME280;22989;55.998;37.212;2023-02-22T01:59:39;-11298.94;;;-145.39;56.10
37078;BME280;22989;55.998;37.212;2023-02-22T02:02:07;-11298.94;;;-145.39;55.72
37078;BME280;22989;55.998;37.212;2023-02-22T02:04:33;-11298.94;;;-145.39;55.86
37078;BME280;22989;55.998;37.212;2023-02-22T02:07:03;-11298.94;;;-145.39;55.88
37078;BME280;22989;55.998;37.212;2023-02-22T02:09:51;-11298.94;;;-145.39;55.78
37078;BME280;22989;55.998;37.212;2023-02-22T02:12:19;-11298.94;;;-145.39;55.85
37078;BME280;22989;55.998;37.212;2023-02-22T02:14:49;-11298.94;;;-145.39;55.78
37078;BME280;22989;55.998;37.212;2023-02-22T02:17:17;-11298.94;;;-145.39;55.58
37078;BME280;22989;55.998;37.212;2023-02-22T02:30:53;-11298.94;;;-145.39;55.42
37078;BME280;22989;55.998;37.212;2023-02-22T02:41:34;-11298.94;;;-145.39;55.41
37078;BME280;22989;55.998;37.212;2023-02-22T02:44:02;-11298.94;;;-145.39;55.25
37078;BME280;22989;55.998;37.212;2023-02-22T02:46:34;-11298.94;;;-145.39;55.17
37078;BME280;22989;55.998;37.212;2023-02-22T02:49:07;-11298.94;;;-145.39;55.06
37078;BME280;22989;55.998;37.212;2023-02-22T02:51:40;-11298.94;;;-145.39;54.98
37078;BME280;22989;55.998;37.212;2023-02-22T02:54:10;-11298.94;;;-145.39;55.11
37078;BME280;22989;55.998;37.212;2023-02-22T02:56:37;-11298.94;;;-145.39;54.97
37078;BME280;22989;55.998;37.212;2023-02-22T02:59:23;-11298.94;;;-145.39;55.03
37078;BME280;22989;55.998;37.212;2023-02-22T03:01:59;-11298.94;;;-145.39;54.94
37078;BME280;22989;55.998;37.212;2023-02-22T03:10:42;-11298.94;;;-145.39;54.72
37078;BME280;22989;55.998;37.212;2023-02-22T03:18:28;-11298.94;;;-145.39;54.61
37078;BME280;22989;55.998;37.212;2023-02-22T03:21:12;-11298.94;;;-145.39;54.69
37078;BME280;22989;55.998;37.212;2023-02-22T03:24:13;-11298.94;;;-145.39;54.40
37078;BME280;22989;55.998;37.212;2023-02-22T03:26:46;-11298.94;;;-145.39;54.35
37078;BME280;22989;55.998;37.212;2023-02-22T03:29:17;-11298.94;;;-145.39;54.35
37078;BME280;22989;55.998;37.212;2023-02-22T03:31:50;-11298.94;;;-145.39;54.09
37078;BME280;22989;55.998;37.212;2023-02-22T03:34:28;-11298.94;;;-145.39;54.17
37078;BME280;22989;55.998;37.212;2023-02-22T03:37:07;-11298.94;;;-145.39;54.27
37078;BME280;22989;55.998;37.212;2023-02-22T03:39:38;-11298.94;;;-145.39;54.18
37078;BME280;22989;55.998;37.212;2023-02-22T03:42:09;-11298.94;;;-145.39;54.06
37078;BME280;22989;55.998;37.212;2023-02-22T03:44:37;-11298.94;;;-145.39;54.00
37078;BME280;22989;55.998;37.212;2023-02-22T03:47:08;-11298.94;;;-145.39;54.11
37078;BME280;22989;55.998;37.212;2023-02-22T03:49:48;-11298.94;;;-145.39;53.93
37078;BME280;22989;55.998;37.212;2023-02-22T03:52:15;-11298.94;;;-145.39;54.00
37078;BME280;22989;55.998;37.212;2023-02-22T03:54:42;-11298.94;;;-145.39;54.03
37078;BME280;22989;55.998;37.212;2023-02-22T03:57:16;-11298.94;;;-145.39;53.97
37078;BME280;22989;55.998;37.212;2023-02-22T03:59:44;-11298.94;;;-145.39;54.05
37078;BME280;22989;55.998;37.212;2023-02-22T04:02:10;-11298.94;;;-145.39;53.90
37078;BME280;22989;55.998;37.212;2023-02-22T04:04:36;-11298.94;;;-145.39;54.03
37078;BME280;22989;55.998;37.212;2023-02-22T04:07:02;-11298.94;;;-145.39;53.93
37078;BME280;22989;55.998;37.212;2023-02-22T04:09:28;-11298.94;;;-145.39;54.10
37078;BME280;22989;55.998;37.212;2023-02-22T04:11:54;-11298.94;;;-145.39;53.98
37078;BME280;22989;55.998;37.212;2023-02-22T04:14:20;-11298.94;;;-145.39;54.00
37078;BME280;22989;55.998;37.212;2023-02-22T04:16:45;-11298.94;;;-145.39;53.97
37078;BME280;22989;55.998;37.212;2023-02-22T04:19:11;-11298.94;;;-145.39;54.07
37078;BME280;22989;55.998;37.212;2023-02-22T04:21:38;-11298.94;;;-145.39;54.16
37078;BME280;22989;55.998;37.212;2023-02-22T04:24:05;-11298.94;;;-145.39;54.06
37078;BME280;22989;55.998;37.212;2023-02-22T04:26:31;-11298.94;;;-145.39;54.11
37078;BME280;22989;55.998;37.212;2023-02-22T04:29:00;-11298.94;;;-145.39;54.13
37078;BME280;22989;55.998;37.212;2023-02-22T04:31:33;-11298.94;;;-145.39;54.24
37078;BME280;22989;55.998;37.212;2023-02-22T04:33:59;-11298.94;;;-145.39;54.09
37078;BME280;22989;55.998;37.212;2023-02-22T04:36:29;-11298.94;;;-145.39;54.17
37078;BME280;22989;55.998;37.212;2023-02-22T04:38:58;-11298.94;;;-145.39;54.46
37078;BME280;22989;55.998;37.212;2023-02-22T04:41:26;-11298.94;;;-145.39;54.22
37078;BME280;22989;55.998;37.212;2023-02-22T04:43:51;-11298.94;;;-145.39;54.21
37078;BME280;22989;55.998;37.212;2023-02-22T04:46:20;-11298.94;;;-145.39;54.28
37078;BME280;22989;55.998;37.212;2023-02-22T04:48:46;-11298.94;;;-145.39;54.22
37078;BME280;22989;55.998;37.212;2023-02-22T04:51:14;-11298.94;;;-145.39;54.29
37078;BME280;22989;55.998;37.212;2023-02-22T04:53:51;-11298.94;;;-145.39;54.22
37078;BME280;22989;55.998;37.212;2023-02-22T04:56:17;-11298.94;;;-145.39;54.15
37078;BME280;22989;55.998;37.212;2023-02-22T04:58:44;-11298.94;;;-145.39;54.20
37078;BME280;22989;55.998;37.212;2023-02-22T05:01:09;-11298.94;;;-145.39;54.17
37078;BME280;22989;55.998;37.212;2023-02-22T05:03:38;-11298.94;;;-145.39;54.17
37078;BME280;22989;55.998;37.212;2023-02-22T05:06:04;-11298.94;;;-145.39;54.13
37078;BME280;22989;55.998;37.212;2023-02-22T05:08:30;-11298.94;;;-145.39;53.96
37078;BME280;22989;55.998;37.212;2023-02-22T05:10:56;-11298.94;;;-145.39;54.17
37078;BME280;22989;55.998;37.212;2023-02-22T05:13:22;-11298.94;;;-145.39;53.89
37078;BME280;22989;55.998;37.212;2023-02-22T05:15:47;-11298.94;;;-145.39;53.75
37078;BME280;22989;55.998;37.212;2023-02-22T05:18:13;-11298.94;;;-145.39;53.77
37078;BME280;22989;55.998;37.212;2023-02-22T05:20:39;-11298.94;;;-145.39;53.78
37078;BME280;22989;55.998;37.212;2023-02-22T05:23:05;-11298.94;;;-145.39;53.85
37078;BME280;22989;55.998;37.212;2023-02-22T05:25:31;-11298.94;;;-145.39;53.59
37078;BME280;22989;55.998;37.212;2023-02-22T05:28:00;-11298.94;;;-145.39;53.42
37078;BME280;22989;55.998;37.212;2023-02-22T05:30:30;-11298.94;;;-145.39;53.46
37078;BME280;22989;55.998;37.212;2023-02-22T05:32:56;-11298.94;;;-145.39;53.13
37078;BME280;22989;55.998;37.212;2023-02-22T05:35:23;-11298.94;;;-145.39;52.93
37078;BME280;22989;55.998;37.212;2023-02-22T05:37:50;-11298.94;;;-145.39;52.99
37078;BME280;22989;55.998;37.212;2023-02-22T05:40:17;-11298.94;;;-145.39;52.89
37078;BME280;22989;55.998;37.212;2023-02-22T05:42:44;-11298.94;;;-145.39;52.71
37078;BME280;22989;55.998;37.212;2023-02-22T05:45:13;-11298.94;;;-145.39;52.40
37078;BME280;22989;55.998;37.212;2023-02-22T05:47:39;-11298.94;;;-145.39;52.08
37078;BME280;22989;55.998;37.212;2023-02-22T05:50:05;-11298.94;;;-145.39;51.93
37078;BME280;22989;55.998;37.212;2023-02-22T05:52:31;-11298.94;;;-145.39;51.78
37078;BME280;22989;55.998;37.212;2023-02-22T05:54:56;-11298.94;;;-145.39;51.66
37078;BME280;22989;55.998;37.212;2023-02-22T05:57:22;-11298.94;;;-145.39;51.36
37078;BME280;22989;55.998;37.212;2023-02-22T05:59:47;-11298.94;;;-145.39;51.10
37078;BME280;22989;55.998;37.212;2023-02-22T06:02:13;-11298.94;;;-145.39;50.95
37078;BME280;22989;55.998;37.212;2023-02-22T06:04:39;-11298.94;;;-145.39;50.91
37078;BME280;22989;55.998;37.212;2023-02-22T06:07:05;-11298.94;;;-145.39;50.58
37078;BME280;22989;55.998;37.212;2023-02-22T06:09:30;-11298.94;;;-145.39;50.34
37078;BME280;22989;55.998;37.212;2023-02-22T06:11:56;-11298.94;;;-145.39;50.12
37078;BME280;22989;55.998;37.212;2023-02-22T06:14:22;-11298.94;;;-145.39;50.00
37078;BME280;22989;55.998;37.212;2023-02-22T06:16:53;-11298.94;;;-145.39;50.02
37078;BME280;22989;55.998;37.212;2023-02-22T06:19:19;-11298.94;;;-145.39;49.75
37078;BME280;22989;55.998;37.212;2023-02-22T06:21:52;-11298.94;;;-145.39;49.63
37078;BME280;22989;55.998;37.212;2023-02-22T06:24:19;-11298.94;;;-145.39;49.43
37078;BME280;22989;55.998;37.212;2023-02-22T06:26:45;-11298.94;;;-145.39;49.53
37078;BME280;22989;55.998;37.212;2023-02-22T06:29:11;-11298.94;;;-145.39;49.36
37078;BME280;22989;55.998;37.212;2023-02-22T06:31:36;-11298.94;;;-145.39;49.09
37078;BME280;22989;55.998;37.212;2023-02-22T06:34:02;-11298.94;;;-145.39;49.06
37078;BME280;22989;55.998;37.212;2023-02-22T06:36:28;-11298.94;;;-145.39;48.70
37078;BME280;22989;55.998;37.212;2023-02-22T06:38:56;-11298.94;;;-145.39;48.55
37078;BME280;22989;55.998;37.212;2023-02-22T06:41:22;-11298.94;;;-145.39;48.39
37078;BME280;22989;55.998;37.212;2023-02-22T06:43:48;-11298.94;;;-145.39;47.63
37078;BME280;22989;55.998;37.212;2023-02-22T06:46:14;-11298.94;;;-145.39;47.24
37078;BME280;22989;55.998;37.212;2023-02-22T06:48:40;-11298.94;;;-145.39;47.01
37078;BME280;22989;55.998;37.212;2023-02-22T06:51:09;-11298.94;;;-145.39;47.02
37078;BME280;22989;55.998;37.212;2023-02-22T06:53:35;-11298.94;;;-145.39;46.52
37078;BME280;22989;55.998;37.212;2023-02-22T06:56:00;-11298.94;;;-145.39;46.61
37078;BME280;22989;55.998;37.212;2023-02-22T06:58:27;-11298.94;;;-145.39;46.26
37078;BME280;22989;55.998;37.212;2023-02-22T07:00:52;-11298.94;;;-145.39;46.26
37078;BME280;22989;55.998;37.212;2023-02-22T07:03:18;-11298.94;;;-145.39;46.15
37078;BME280;22989;55.998;37.212;2023-02-22T07:05:44;-11298.94;;;-145.39;45.97
37078;BME280;22989;55.998;37.212;2023-02-22T07:08:10;-11298.94;;;-145.39;45.23
37078;BME280;22989;55.998;37.212;2023-02-22T07:10:38;-11298.94;;;-145.39;44.00
37078;BME280;22989;55.998;37.212;2023-02-22T07:13:05;-11298.94;;;-145.39;42.68
37078;BME280;22989;55.998;37.212;2023-02-22T07:15:32;-11298.94;;;-145.39;41.25
37078;BME280;22989;55.998;37.212;2023-02-22T07:17:59;-11298.94;;;-145.39;39.98
37078;BME280;22989;55.998;37.212;2023-02-22T07:20:28;-11298.94;;;-145.39;39.13
37078;BME280;22989;55.998;37.212;2023-02-22T07:22:54;-11298.94;;;-145.39;38.86
37078;BME280;22989;55.998;37.212;2023-02-22T07:25:20;-11298.94;;;-145.39;38.17
37078;BME280;22989;55.998;37.212;2023-02-22T07:27:47;-11298.94;;;-145.39;37.96
37078;BME280;22989;55.998;37.212;2023-02-22T07:32:51;-11298.94;;;-145.39;38.22
37078;BME280;22989;55.998;37.212;2023-02-22T07:35:21;-11298.94;;;-145.39;38.47
37078;BME280;22989;55.998;37.212;2023-02-22T07:37:46;-11298.94;;;-145.39;38.37
37078;BME280;22989;55.998;37.212;2023-02-22T07:40:13;-11298.94;;;-145.39;38.42
37078;BME280;22989;55.998;37.212;2023-02-22T07:42:59;-11298.94;;;-145.39;38.65
37078;BME280;22989;55.998;37.212;2023-02-22T07:45:31;-11298.94;;;-145.39;39.06
37078;BME280;22989;55.998;37.212;2023-02-22T07:47:58;-11298.94;;;-145.39;39.15
37078;BME280;22989;55.998;37.212;2023-02-22T07:50:26;-11298.94;;;-145.39;39.16
37078;BME280;22989;55.998;37.212;2023-02-22T07:52:54;-11298.94;;;-145.39;39.23
37078;BME280;22989;55.998;37.212;2023-02-22T07:55:23;-11298.94;;;-145.39;39.46
37078;BME280;22989;55.998;37.212;2023-02-22T07:57:51;-11298.94;;;-145.39;39.50
37078;BME280;22989;55.998;37.212;2023-02-22T08:00:29;-11298.94;;;-145.39;40.10
37078;BME280;22989;55.998;37.212;2023-02-22T08:02:55;-11298.94;;;-145.39;40.05
37078;BME280;22989;55.998;37.212;2023-02-22T08:05:23;-11298.94;;;-145.39;40.50
37078;BME280;22989;55.998;37.212;2023-02-22T08:07:49;-11298.94;;;-145.39;40.45
37078;BME280;22989;55.998;37.212;2023-02-22T08:10:15;-11298.94;;;-145.39;40.53
37078;BME280;22989;55.998;37.212;2023-02-22T08:12:41;-11298.94;;;-145.39;40.54
37078;BME280;22989;55.998;37.212;2023-02-22T08:15:13;-11298.94;;;-145.39;40.78
37078;BME280;22989;55.998;37.212;2023-02-22T08:17:39;-11298.94;;;-145.39;40.94
37078;BME280;22989;55.998;37.212;2023-02-22T08:20:05;-11298.94;;;-145.39;41.07
37078;BME280;22989;55.998;37.212;2023-02-22T08:22:31;-11298.94;;;-145.39;41.27
37078;BME280;22989;55.998;37.212;2023-02-22T08:24:57;-11298.94;;;-145.39;41.37
37078;BME280;22989;55.998;37.212;2023-02-22T08:27:23;-11298.94;;;-145.39;41.56
37078;BME280;22989;55.998;37.212;2023-02-22T08:29:50;-11298.94;;;-145.39;41.88
37078;BME280;22989;55.998;37.212;2023-02-22T08:32:15;-11298.94;;;-145.39;41.83
37078;BME280;22989;55.998;37.212;2023-02-22T08:34:41;-11298.94;;;-145.39;41.88
37078;BME280;22989;55.998;37.212;2023-02-22T08:37:07;-11298.94;;;-145.39;42.03
37078;BME280;22989;55.998;37.212;2023-02-22T08:39:33;-11298.94;;;-145.39;41.96
37078;BME280;22989;55.998;37.212;2023-02-22T08:41:58;-11298.94;;;-145.39;42.04
37078;BME280;22989;55.998;37.212;2023-02-22T08:44:24;-11298.94;;;-145.39;42.31
37078;BME280;22989;55.998;37.212;2023-02-22T08:46:49;-11298.94;;;-145.39;42.03
37078;BME280;22989;55.998;37.212;2023-02-22T08:49:16;-11298.94;;;-145.39;42.19
37078;BME280;22989;55.998;37.212;2023-02-22T08:51:41;-11298.94;;;-145.39;42.22
37078;BME280;22989;55.998;37.212;2023-02-22T08:54:07;-11298.94;;;-145.39;42.06
37078;BME280;22989;55.998;37.212;2023-02-22T08:56:33;-11298.94;;;-145.39;42.03
37078;BME280;22989;55.998;37.212;2023-02-22T08:58:58;-11298.94;;;-145.39;42.26
37078;BME280;22989;55.998;37.212;2023-02-22T09:01:24;-11298.94;;;-145.39;42.08
37078;BME280;22989;55.998;37.212;2023-02-22T09:03:50;-11298.94;;;-145.39;42.40
37078;BME280;22989;55.998;37.212;2023-02-22T09:06:17;-11298.94;;;-145.39;42.33
37078;BME280;22989;55.998;37.212;2023-02-22T09:08:43;-11298.94;;;-145.39;42.52
37078;BME280;22989;55.998;37.212;2023-02-22T09:11:08;-11298.94;;;-145.39;42.73
37078;BME280;22989;55.998;37.212;2023-02-22T09:13:34;-11298.94;;;-145.39;42.62
37078;BME280;22989;55.998;37.212;2023-02-22T09:16:00;-11298.94;;;-145.39;42.37
37078;BME280;22989;55.998;37.212;2023-02-22T09:18:27;-11298.94;;;-145.39;42.13
37078;BME280;22989;55.998;37.212;2023-02-22T09:20:53;-11298.94;;;-145.39;41.83
37078;BME280;22989;55.998;37.212;2023-02-22T09:23:19;-11298.94;;;-145.39;41.88
37078;BME280;22989;55.998;37.212;2023-02-22T09:25:49;-11298.94;;;-145.39;41.73
37078;BME280;22989;55.998;37.212;2023-02-22T09:28:15;-11298.94;;;-145.39;41.63
37078;BME280;22989;55.998;37.212;2023-02-22T09:30:41;-11298.94;;;-145.39;41.64
37078;BME280;22989;55.998;37.212;2023-02-22T09:33:15;-11298.94;;;-145.39;41.36
37078;BME280;22989;55.998;37.212;2023-02-22T09:35:42;-11298.94;;;-145.39;41.33
37078;BME280;22989;55.998;37.212;2023-02-22T09:38:14;-11298.94;;;-145.39;41.14
37078;BME280;22989;55.998;37.212;2023-02-22T09:40:44;-11298.94;;;-145.39;41.16
37078;BME280;22989;55.998;37.212;2023-02-22T09:48:21;-11298.94;;;-145.39;41.18
37078;BME280;22989;55.998;37.212;2023-02-22T09:50:50;-11298.94;;;-145.39;41.41
37078;BME280;22989;55.998;37.212;2023-02-22T09:53:40;-11298.94;;;-145.39;40.98
37078;BME280;22989;55.998;37.212;2023-02-22T09:56:11;-11298.94;;;-145.39;41.11
37078;BME280;22989;55.998;37.212;2023-02-22T09:58:46;-11298.94;;;-145.39;41.14
37078;BME280;22989;55.998;37.212;2023-02-22T10:01:27;-11298.94;;;-145.39;41.17
37078;BME280;22989;55.998;37.212;2023-02-22T10:04:00;-11298.94;;;-145.39;41.21
37078;BME280;22989;55.998;37.212;2023-02-22T10:06:29;-11298.94;;;-145.39;41.23
37078;BME280;22989;55.998;37.212;2023-02-22T10:09:00;-11298.94;;;-145.39;41.35
37078;BME280;22989;55.998;37.212;2023-02-22T10:16:52;-11298.94;;;-145.39;41.91
37078;BME280;22989;55.998;37.212;2023-02-22T10:22:31;-11298.94;;;-145.39;42.07
37078;BME280;22989;55.998;37.212;2023-02-22T10:25:14;-11298.94;;;-145.39;42.27
37078;BME280;22989;55.998;37.212;2023-02-22T10:27:57;-11298.94;;;-145.39;41.72
37078;BME280;22989;55.998;37.212;2023-02-22T10:30:30;-11298.94;;;-145.39;42.10
37078;BME280;22989;55.998;37.212;2023-02-22T10:33:11;-11298.94;;;-145.39;41.93
37078;BME280;22989;55.998;37.212;2023-02-22T10:35:40;-11298.94;;;-145.39;42.06
37078;BME280;22989;55.998;37.212;2023-02-22T10:38:21;-11298.94;;;-145.39;42.00
37078;BME280;22989;55.998;37.212;2023-02-22T10:43:42;-11298.94;;;-145.39;42.06
37078;BME280;22989;55.998;37.212;2023-02-22T10:46:12;-11298.94;;;-145.39;42.19
37078;BME280;22989;55.998;37.212;2023-02-22T10:48:41;-11298.94;;;-145.39;42.50
37078;BME280;22989;55.998;37.212;2023-02-22T10:51:08;-11298.94;;;-145.39;42.20
37078;BME280;22989;55.998;37.212;2023-02-22T10:53:36;-11298.94;;;-145.39;42.12
37078;BME280;22989;55.998;37.212;2023-02-22T10:56:17;-11298.94;;;-145.39;42.50
37078;BME280;22989;55.998;37.212;2023-02-22T10:58:49;-11298.94;;;-145.39;42.42
37078;BME280;22989;55.998;37.212;2023-02-22T11:01:22;-11298.94;;;-145.39;42.07
37078;BME280;22989;55.998;37.212;2023-02-22T11:04:05;-11298.94;;;-145.39;42.42
37078;BME280;22989;55.998;37.212;2023-02-22T11:06:33;-11298.94;;;-145.39;42.26
37078;BME280;22989;55.998;37.212;2023-02-22T11:09:09;-11298.94;;;-145.39;42.30
37078;BME280;22989;55.998;37.212;2023-02-22T11:11:37;-11298.94;;;-145.39;42.57
37078;BME280;22989;55.998;37.212;2023-02-22T11:14:03;-11298.94;;;-145.39;42.50
37078;BME280;22989;55.998;37.212;2023-02-22T11:16:38;-11298.94;;;-145.39;42.79
37078;BME280;22989;55.998;37.212;2023-02-22T11:21:49;-11298.94;;;-145.39;42.84
37078;BME280;22989;55.998;37.212;2023-02-22T11:24:20;-11298.94;;;-145.39;43.27
37078;BME280;22989;55.998;37.212;2023-02-22T11:27:00;-11298.94;;;-145.39;43.48
37078;BME280;22989;55.998;37.212;2023-02-22T11:29:34;-11298.94;;;-145.39;43.68
37078;BME280;22989;55.998;37.212;2023-02-22T11:32:10;-11298.94;;;-145.39;43.48
37078;BME280;22989;55.998;37.212;2023-02-22T11:34:39;-11298.94;;;-145.39;42.87
37078;BME280;22989;55.998;37.212;2023-02-22T11:37:30;-11298.94;;;-145.39;42.91
37078;BME280;22989;55.998;37.212;2023-02-22T11:40:18;-11298.94;;;-145.39;42.92
37078;BME280;22989;55.998;37.212;2023-02-22T11:43:09;-11298.94;;;-145.39;42.69
37078;BME280;22989;55.998;37.212;2023-02-22T11:45:37;-11298.94;;;-145.39;43.01
37078;BME280;22989;55.998;37.212;2023-02-22T11:48:06;-11298.94;;;-145.39;42.93
37078;BME280;22989;55.998;37.212;2023-02-22T11:56:21;-11298.94;;;-145.39;42.82
37078;BME280;22989;55.998;37.212;2023-02-22T12:01:28;-11298.94;;;-145.39;43.04
37078;BME280;22989;55.998;37.212;2023-02-22T12:04:31;-11298.94;;;-145.39;43.27
37078;BME280;22989;55.998;37.212;2023-02-22T12:07:35;-11298.94;;;-145.39;43.36
37078;BME280;22989;55.998;37.212;2023-02-22T12:10:34;-11298.94;;;-145.39;43.12
37078;BME280;22989;55.998;37.212;2023-02-22T12:15:58;-11298.94;;;-145.39;43.11
37078;BME280;22989;55.998;37.212;2023-02-22T12:21:22;-11298.94;;;-145.39;43.63
37078;BME280;22989;55.998;37.212;2023-02-22T12:23:53;-11298.94;;;-145.39;43.38
37078;BME280;22989;55.998;37.212;2023-02-22T12:26:36;-11298.94;;;-145.39;43.64
37078;BME280;22989;55.998;37.212;2023-02-22T12:31:48;-11298.94;;;-145.39;43.61
37078;BME280;22989;55.998;37.212;2023-02-22T12:36:55;-11298.94;;;-145.39;44.00
37078;BME280;22989;55.998;37.212;2023-02-22T12:42:28;-11298.94;;;-145.39;43.97
37078;BME280;22989;55.998;37.212;2023-02-22T12:45:03;-11298.94;;;-145.39;43.82
37078;BME280;22989;55.998;37.212;2023-02-22T12:47:43;-11298.94;;;-145.39;43.80
37078;BME280;22989;55.998;37.212;2023-02-22T12:50:29;-11298.94;;;-145.39;44.09
37078;BME280;22989;55.998;37.212;2023-02-22T12:53:11;-11298.94;;;-145.39;44.10
37078;BME280;22989;55.998;37.212;2023-02-22T12:55:59;-11298.94;;;-145.39;44.07
37078;BME280;22989;55.998;37.212;2023-02-22T12:58:35;-11298.94;;;-145.39;44.36
37078;BME280;22989;55.998;37.212;2023-02-22T13:01:10;-11298.94;;;-145.39;44.18
37078;BME280;22989;55.998;37.212;2023-02-22T13:03:40;-11298.94;;;-145.39;44.62
37078;BME280;22989;55.998;37.212;2023-02-22T13:36:34;-11298.94;;;-145.39;45.36
37078;BME280;22989;55.998;37.212;2023-02-22T13:50:32;-11298.94;;;-145.39;45.84
37078;BME280;22989;55.998;37.212;2023-02-22T13:53:06;-11298.94;;;-145.39;46.13
37078;BME280;22989;55.998;37.212;2023-02-22T13:55:38;-11298.94;;;-145.39;46.25
37078;BME280;22989;55.998;37.212;2023-02-22T13:58:07;-11298.94;;;-145.39;46.36
37078;BME280;22989;55.998;37.212;2023-02-22T14:00:54;-11298.94;;;-145.39;46.36
37078;BME280;22989;55.998;37.212;2023-02-22T14:05:48;-11298.94;;;-145.39;46.54
37078;BME280;22989;55.998;37.212;2023-02-22T14:10:47;-11298.94;;;-145.39;46.71
37078;BME280;22989;55.998;37.212;2023-02-22T14:13:15;-11298.94;;;-145.39;46.80
37078;BME280;22989;55.998;37.212;2023-02-22T14:18:40;-11298.94;;;-145.39;47.04
37078;BME280;22989;55.998;37.212;2023-02-22T14:21:17;-11298.94;;;-145.39;47.27
37078;BME280;22989;55.998;37.212;2023-02-22T14:23:48;-11298.94;;;-145.39;47.34
37078;BME280;22989;55.998;37.212;2023-02-22T14:37:07;-11298.94;;;-145.39;47.86
37078;BME280;22989;55.998;37.212;2023-02-22T14:39:45;-11298.94;;;-145.39;47.98
37078;BME280;22989;55.998;37.212;2023-02-22T14:45:16;-11298.94;;;-145.39;48.11
37078;BME280;22989;55.998;37.212;2023-02-22T14:50:56;-11298.94;;;-145.39;48.58
37078;BME280;22989;55.998;37.212;2023-02-22T14:56:37;-11298.94;;;-145.39;48.75
37078;BME280;22989;55.998;37.212;2023-02-22T14:59:19;-11298.94;;;-145.39;48.79